sensor_id;sensor_type;location;lat;lon;timestamp;temperature;humidity
47540;DHT22;33280;52.152;21.052;2022-10-28T00:01:05;10.50;99.90
47540;DHT22;33280;52.152;21.052;2022-10-28T00:03:46;10.50;99.90
47540;DHT22;33280;52.152;21.052;2022-10-28T00:06:21;10.40;99.90
47540;DHT22;33280;52.152;21.052;2022-10-28T00:08:49;10.30;99.90
47540;DHT22;33280;52.152;21.052;2022-10-28T00:11:19;10.30;99.90
47540;DHT22;33280;52.152;21.052;2022-10-28T00:13:46;10.30;99.90
47540;DHT22;33280;52.152;21.052;2022-10-28T00:16:17;10.30;99.90
47540;DHT22;33280;52.152;21.052;2022-10-28T00:18:44;10.30;99.90
47540;DHT22;33280;52.152;21.052;2022-10-28T00:21:14;10.30;99.90
47540;DHT22;33280;52.152;21.052;2022-10-28T00:23:42;10.20;99.90
47540;DHT22;33280;52.152;21.052;2022-10-28T00:26:11;10.20;99.90
47540;DHT22;33280;52.152;21.052;2022-10-28T00:28:43;10.20;99.90
47540;DHT22;33280;52.152;21.052;2022-10-28T00:31:13;10.20;99.90
47540;DHT22;33280;52.152;21.052;2022-10-28T00:33:40;10.30;99.90
47540;DHT22;33280;52.152;21.052;2022-10-28T00:36:19;10.30;99.90
47540;DHT22;33280;52.152;21.052;2022-10-28T00:38:49;10.30;99.90
47540;DHT22;33280;52.152;21.052;2022-10-28T00:41:22;10.40;99.90
47540;DHT22;33280;52.152;21.052;2022-10-28T00:43:55;10.40;99.90
47540;DHT22;33280;52.152;21.052;2022-10-28T00:46:34;10.30;99.90
47540;DHT22;33280;52.152;21.052;2022-10-28T00:52:12;10.40;99.90
47540;DHT22;33280;52.152;21.052;2022-10-28T00:54:41;10.30;99.90
47540;DHT22;33280;52.152;21.052;2022-10-28T00:57:13;10.30;99.90
47540;DHT22;33280;52.152;21.052;2022-10-28T00:59:45;10.20;99.90
47540;DHT22;33280;52.152;21.052;2022-10-28T01:02:12;10.20;99.90
47540;DHT22;33280;52.152;21.052;2022-10-28T01:04:41;10.10;99.90
47540;DHT22;33280;52.152;21.052;2022-10-28T01:07:09;10.10;99.90
47540;DHT22;33280;52.152;21.052;2022-10-28T01:09:37;10.10;99.90
47540;DHT22;33280;52.152;21.052;2022-10-28T01:15:11;10.10;99.90
47540;DHT22;33280;52.152;21.052;2022-10-28T01:23:36;10.20;99.90
47540;DHT22;33280;52.152;21.052;2022-10-28T01:26:29;10.20;99.90
47540;DHT22;33280;52.152;21.052;2022-10-28T01:32:37;10.30;99.90
47540;DHT22;33280;52.152;21.052;2022-10-28T01:40:33;10.40;99.90
47540;DHT22;33280;52.152;21.052;2022-10-28T01:46:25;10.40;99.90
47540;DHT22;33280;52.152;21.052;2022-10-28T01:48:58;10.40;99.90
47540;DHT22;33280;52.152;21.052;2022-10-28T01:51:37;10.50;99.90
47540;DHT22;33280;52.152;21.052;2022-10-28T01:54:06;10.50;99.90
47540;DHT22;33280;52.152;21.052;2022-10-28T01:56:37;10.50;99.90
47540;DHT22;33280;52.152;21.052;2022-10-28T01:59:10;10.60;99.90
47540;DHT22;33280;52.152;21.052;2022-10-28T02:01:38;10.50;99.90
47540;DHT22;33280;52.152;21.052;2022-10-28T02:04:05;10.60;99.90
47540;DHT22;33280;52.152;21.052;2022-10-28T02:06:32;10.50;99.90
47540;DHT22;33280;52.152;21.052;2022-10-28T02:17:54;10.50;99.90
47540;DHT22;33280;52.152;21.052;2022-10-28T02:25:40;10.50;99.90
47540;DHT22;33280;52.152;21.052;2022-10-28T02:28:10;10.50;99.90
47540;DHT22;33280;52.152;21.052;2022-10-28T02:30:49;10.40;99.90
47540;DHT22;33280;52.152;21.052;2022-10-28T02:33:21;10.40;99.90
47540;DHT22;33280;52.152;21.052;2022-10-28T02:35:53;10.40;99.90
47540;DHT22;33280;52.152;21.052;2022-10-28T02:38:28;10.30;99.90
47540;DHT22;33280;52.152;21.052;2022-10-28T02:41:00;10.30;99.90
47540;DHT22;33280;52.152;21.052;2022-10-28T02:43:29;10.30;99.90
47540;DHT22;33280;52.152;21.052;2022-10-28T02:45:59;10.30;99.90
47540;DHT22;33280;52.152;21.052;2022-10-28T02:48:30;10.20;99.90
47540;DHT22;33280;52.152;21.052;2022-10-28T02:51:12;10.20;99.90
47540;DHT22;33280;52.152;21.052;2022-10-28T02:56:45;10.20;99.90
47540;DHT22;33280;52.152;21.052;2022-10-28T02:59:13;10.20;99.90
47540;DHT22;33280;52.152;21.052;2022-10-28T03:01:40;10.10;99.90
47540;DHT22;33280;52.152;21.052;2022-10-28T03:04:07;10.10;99.90
47540;DHT22;33280;52.152;21.052;2022-10-28T03:06:34;10.00;99.90
47540;DHT22;33280;52.152;21.052;2022-10-28T03:09:07;10.00;99.90
47540;DHT22;33280;52.152;21.052;2022-10-28T03:11:38;10.10;99.90
47540;DHT22;33280;52.152;21.052;2022-10-28T03:14:05;10.10;99.90
47540;DHT22;33280;52.152;21.052;2022-10-28T03:16:35;10.10;99.90
47540;DHT22;33280;52.152;21.052;2022-10-28T03:19:02;10.10;99.90
47540;DHT22;33280;52.152;21.052;2022-10-28T03:21:29;10.10;99.90
47540;DHT22;33280;52.152;21.052;2022-10-28T03:23:56;10.10;99.90
47540;DHT22;33280;52.152;21.052;2022-10-28T03:26:23;10.10;99.90
47540;DHT22;33280;52.152;21.052;2022-10-28T03:28:50;10.10;99.90
47540;DHT22;33280;52.152;21.052;2022-10-28T03:31:16;10.10;99.90
47540;DHT22;33280;52.152;21.052;2022-10-28T03:33:43;10.10;99.90
47540;DHT22;33280;52.152;21.052;2022-10-28T03:36:10;10.00;99.90
47540;DHT22;33280;52.152;21.052;2022-10-28T03:38:40;10.00;99.90
47540;DHT22;33280;52.152;21.052;2022-10-28T03:41:07;10.00;99.90
47540;DHT22;33280;52.152;21.052;2022-10-28T03:43:34;10.00;99.90
47540;DHT22;33280;52.152;21.052;2022-10-28T03:46:01;10.00;99.90
47540;DHT22;33280;52.152;21.052;2022-10-28T03:48:27;9.90;99.90
47540;DHT22;33280;52.152;21.052;2022-10-28T03:51:05;9.80;99.90
47540;DHT22;33280;52.152;21.052;2022-10-28T03:53:36;9.80;99.90
47540;DHT22;33280;52.152;21.052;2022-10-28T03:56:06;9.70;99.90
47540;DHT22;33280;52.152;21.052;2022-10-28T03:58:34;9.60;99.90
47540;DHT22;33280;52.152;21.052;2022-10-28T04:01:07;9.60;99.90
47540;DHT22;33280;52.152;21.052;2022-10-28T04:03:34;9.50;99.90
47540;DHT22;33280;52.152;21.052;2022-10-28T04:06:01;9.50;99.90
47540;DHT22;33280;52.152;21.052;2022-10-28T04:08:28;9.40;99.90
47540;DHT22;33280;52.152;21.052;2022-10-28T04:10:55;9.40;99.90
47540;DHT22;33280;52.152;21.052;2022-10-28T04:13:22;9.30;99.90
47540;DHT22;33280;52.152;21.052;2022-10-28T04:15:49;9.20;99.90
47540;DHT22;33280;52.152;21.052;2022-10-28T04:18:16;9.10;99.90
47540;DHT22;33280;52.152;21.052;2022-10-28T04:20:44;9.10;99.90
47540;DHT22;33280;52.152;21.052;2022-10-28T04:23:15;9.10;99.90
47540;DHT22;33280;52.152;21.052;2022-10-28T04:25:50;9.00;99.90
47540;DHT22;33280;52.152;21.052;2022-10-28T04:28:28;9.00;99.90
47540;DHT22;33280;52.152;21.052;2022-10-28T04:30:55;8.90;99.90
47540;DHT22;33280;52.152;21.052;2022-10-28T04:33:27;8.90;99.90
47540;DHT22;33280;52.152;21.052;2022-10-28T04:35:54;8.80;99.90
47540;DHT22;33280;52.152;21.052;2022-10-28T04:38:22;8.80;99.90
47540;DHT22;33280;52.152;21.052;2022-10-28T04:40:54;8.70;99.90
47540;DHT22;33280;52.152;21.052;2022-10-28T04:43:22;8.60;99.90
47540;DHT22;33280;52.152;21.052;2022-10-28T04:45:49;8.60;99.90
47540;DHT22;33280;52.152;21.052;2022-10-28T04:48:16;8.60;99.90
47540;DHT22;33280;52.152;21.052;2022-10-28T04:50:43;8.60;99.90
47540;DHT22;33280;52.152;21.052;2022-10-28T04:53:12;8.60;99.90
47540;DHT22;33280;52.152;21.052;2022-10-28T04:55:39;8.60;99.90
47540;DHT22;33280;52.152;21.052;2022-10-28T04:58:06;8.60;99.90
47540;DHT22;33280;52.152;21.052;2022-10-28T05:00:36;8.60;99.90
47540;DHT22;33280;52.152;21.052;2022-10-28T05:03:03;8.60;99.90
47540;DHT22;33280;52.152;21.052;2022-10-28T05:05:31;8.60;99.90
47540;DHT22;33280;52.152;21.052;2022-10-28T05:07:58;8.60;99.90
47540;DHT22;33280;52.152;21.052;2022-10-28T05:10:25;8.50;99.90
47540;DHT22;33280;52.152;21.052;2022-10-28T05:12:52;8.60;99.90
47540;DHT22;33280;52.152;21.052;2022-10-28T05:15:20;8.50;99.90
47540;DHT22;33280;52.152;21.052;2022-10-28T05:17:47;8.50;99.90
47540;DHT22;33280;52.152;21.052;2022-10-28T05:20:17;8.40;99.90
47540;DHT22;33280;52.152;21.052;2022-10-28T05:22:46;8.50;99.90
47540;DHT22;33280;52.152;21.052;2022-10-28T05:25:14;8.40;99.90
47540;DHT22;33280;52.152;21.052;2022-10-28T05:27:41;8.40;99.90
47540;DHT22;33280;52.152;21.052;2022-10-28T05:30:08;8.40;99.90
47540;DHT22;33280;52.152;21.052;2022-10-28T05:32:35;8.40;99.90
47540;DHT22;33280;52.152;21.052;2022-10-28T05:35:03;8.40;99.90
47540;DHT22;33280;52.152;21.052;2022-10-28T05:37:30;8.50;99.90
47540;DHT22;33280;52.152;21.052;2022-10-28T05:39:57;8.50;99.90
47540;DHT22;33280;52.152;21.052;2022-10-28T05:42:24;8.60;99.90
47540;DHT22;33280;52.152;21.052;2022-10-28T05:44:51;8.60;99.90
47540;DHT22;33280;52.152;21.052;2022-10-28T05:47:18;8.60;99.90
47540;DHT22;33280;52.152;21.052;2022-10-28T05:49:47;8.60;99.90
47540;DHT22;33280;52.152;21.052;2022-10-28T05:52:14;8.60;99.90
47540;DHT22;33280;52.152;21.052;2022-10-28T05:54:41;8.60;99.90
47540;DHT22;33280;52.152;21.052;2022-10-28T05:57:08;8.60;99.90
47540;DHT22;33280;52.152;21.052;2022-10-28T05:59:35;8.70;99.90
47540;DHT22;33280;52.152;21.052;2022-10-28T06:02:02;8.70;99.90
47540;DHT22;33280;52.152;21.052;2022-10-28T06:04:29;8.70;99.90
47540;DHT22;33280;52.152;21.052;2022-10-28T06:06:57;8.70;99.90
47540;DHT22;33280;52.152;21.052;2022-10-28T06:09:26;8.70;99.90
47540;DHT22;33280;52.152;21.052;2022-10-28T06:11:53;8.70;99.90
47540;DHT22;33280;52.152;21.052;2022-10-28T06:14:20;8.70;99.90
47540;DHT22;33280;52.152;21.052;2022-10-28T06:16:47;8.80;99.90
47540;DHT22;33280;52.152;21.052;2022-10-28T06:19:14;8.80;99.90
47540;DHT22;33280;52.152;21.052;2022-10-28T06:21:42;8.80;99.90
47540;DHT22;33280;52.152;21.052;2022-10-28T06:24:09;8.80;99.90
47540;DHT22;33280;52.152;21.052;2022-10-28T06:26:39;8.90;99.90
47540;DHT22;33280;52.152;21.052;2022-10-28T06:29:09;8.90;99.90
47540;DHT22;33280;52.152;21.052;2022-10-28T06:31:40;9.00;99.90
47540;DHT22;33280;52.152;21.052;2022-10-28T06:34:08;9.00;99.90
47540;DHT22;33280;52.152;21.052;2022-10-28T06:36:35;9.10;99.90
47540;DHT22;33280;52.152;21.052;2022-10-28T06:39:03;9.10;99.90
47540;DHT22;33280;52.152;21.052;2022-10-28T06:41:30;9.20;99.90
47540;DHT22;33280;52.152;21.052;2022-10-28T06:43:57;9.20;99.90
47540;DHT22;33280;52.152;21.052;2022-10-28T06:46:24;9.20;99.90
47540;DHT22;33280;52.152;21.052;2022-10-28T06:48:53;9.30;99.90
47540;DHT22;33280;52.152;21.052;2022-10-28T06:51:20;9.30;99.90
47540;DHT22;33280;52.152;21.052;2022-10-28T06:53:48;9.50;99.90
47540;DHT22;33280;52.152;21.052;2022-10-28T06:56:16;9.60;99.90
47540;DHT22;33280;52.152;21.052;2022-10-28T06:58:43;9.60;99.90
47540;DHT22;33280;52.152;21.052;2022-10-28T07:01:10;9.70;99.90
47540;DHT22;33280;52.152;21.052;2022-10-28T07:03:37;9.80;99.90
47540;DHT22;33280;52.152;21.052;2022-10-28T07:06:05;10.00;99.90
47540;DHT22;33280;52.152;21.052;2022-10-28T07:08:32;10.10;99.90
47540;DHT22;33280;52.152;21.052;2022-10-28T07:10:59;10.30;99.90
47540;DHT22;33280;52.152;21.052;2022-10-28T07:13:28;10.40;99.90
47540;DHT22;33280;52.152;21.052;2022-10-28T07:15:58;10.40;99.90
47540;DHT22;33280;52.152;21.052;2022-10-28T07:18:27;10.60;99.90
47540;DHT22;33280;52.152;21.052;2022-10-28T07:20:59;10.60;99.90
47540;DHT22;33280;52.152;21.052;2022-10-28T07:23:26;10.70;99.90
47540;DHT22;33280;52.152;21.052;2022-10-28T07:25:54;10.80;99.90
47540;DHT22;33280;52.152;21.052;2022-10-28T07:28:23;10.90;99.90
47540;DHT22;33280;52.152;21.052;2022-10-28T07:30:51;11.00;99.90
47540;DHT22;33280;52.152;21.052;2022-10-28T07:33:18;11.10;99.90
47540;DHT22;33280;52.152;21.052;2022-10-28T07:35:45;11.20;99.90
47540;DHT22;33280;52.152;21.052;2022-10-28T07:38:12;11.30;99.90
47540;DHT22;33280;52.152;21.052;2022-10-28T07:40:39;11.30;99.90
47540;DHT22;33280;52.152;21.052;2022-10-28T07:43:06;11.40;99.90
47540;DHT22;33280;52.152;21.052;2022-10-28T07:45:34;11.70;99.90
47540;DHT22;33280;52.152;21.052;2022-10-28T07:48:02;12.20;99.90
47540;DHT22;33280;52.152;21.052;2022-10-28T07:50:29;12.70;99.90
47540;DHT22;33280;52.152;21.052;2022-10-28T07:52:56;13.10;99.90
47540;DHT22;33280;52.152;21.052;2022-10-28T07:55:23;13.60;99.90
47540;DHT22;33280;52.152;21.052;2022-10-28T07:57:51;14.10;99.90
47540;DHT22;33280;52.152;21.052;2022-10-28T08:00:18;14.30;99.90
47540;DHT22;33280;52.152;21.052;2022-10-28T08:02:45;14.30;99.90
47540;DHT22;33280;52.152;21.052;2022-10-28T08:05:12;14.20;99.90
47540;DHT22;33280;52.152;21.052;2022-10-28T08:07:39;14.10;99.90
47540;DHT22;33280;52.152;21.052;2022-10-28T08:10:06;13.90;99.90
47540;DHT22;33280;52.152;21.052;2022-10-28T08:12:33;13.80;99.90
47540;DHT22;33280;52.152;21.052;2022-10-28T08:15:00;14.00;99.90
47540;DHT22;33280;52.152;21.052;2022-10-28T08:17:28;14.30;99.90
47540;DHT22;33280;52.152;21.052;2022-10-28T08:19:55;14.60;99.90
47540;DHT22;33280;52.152;21.052;2022-10-28T08:22:22;14.80;99.90
47540;DHT22;33280;52.152;21.052;2022-10-28T08:24:50;14.90;99.90
47540;DHT22;33280;52.152;21.052;2022-10-28T08:27:17;14.90;99.90
47540;DHT22;33280;52.152;21.052;2022-10-28T08:29:43;15.10;99.90
47540;DHT22;33280;52.152;21.052;2022-10-28T08:32:10;15.30;99.90
47540;DHT22;33280;52.152;21.052;2022-10-28T08:34:37;15.40;99.90
47540;DHT22;33280;52.152;21.052;2022-10-28T08:37:09;15.40;99.90
47540;DHT22;33280;52.152;21.052;2022-10-28T08:39:36;15.40;99.90
47540;DHT22;33280;52.152;21.052;2022-10-28T08:42:42;15.60;99.90
47540;DHT22;33280;52.152;21.052;2022-10-28T08:50:47;16.70;99.90
47540;DHT22;33280;52.152;21.052;2022-10-28T08:53:18;16.70;99.90
47540;DHT22;33280;52.152;21.052;2022-10-28T08:55:48;16.50;99.90
47540;DHT22;33280;52.152;21.052;2022-10-28T08:58:23;16.30;99.90
47540;DHT22;33280;52.152;21.052;2022-10-28T09:00:53;16.10;99.90
47540;DHT22;33280;52.152;21.052;2022-10-28T09:03:25;16.10;99.90
47540;DHT22;33280;52.152;21.052;2022-10-28T09:05:59;16.30;99.90
47540;DHT22;33280;52.152;21.052;2022-10-28T09:08:29;16.70;99.90
47540;DHT22;33280;52.152;21.052;2022-10-28T09:18:56;17.70;99.90
47540;DHT22;33280;52.152;21.052;2022-10-28T09:30:14;19.20;99.90
47540;DHT22;33280;52.152;21.052;2022-10-28T09:33:00;19.60;99.90
47540;DHT22;33280;52.152;21.052;2022-10-28T09:35:32;19.70;99.90
47540;DHT22;33280;52.152;21.052;2022-10-28T09:40:40;19.50;99.90
47540;DHT22;33280;52.152;21.052;2022-10-28T09:43:26;19.30;99.90
47540;DHT22;33280;52.152;21.052;2022-10-28T09:45:59;19.40;99.90
47540;DHT22;33280;52.152;21.052;2022-10-28T09:48:30;19.60;99.90
47540;DHT22;33280;52.152;21.052;2022-10-28T09:50:58;20.00;99.90
47540;DHT22;33280;52.152;21.052;2022-10-28T09:56:16;20.40;99.90
47540;DHT22;33280;52.152;21.052;2022-10-28T09:58:46;20.20;99.90
47540;DHT22;33280;52.152;21.052;2022-10-28T10:01:16;20.30;99.90
47540;DHT22;33280;52.152;21.052;2022-10-28T10:03:47;20.30;99.90
47540;DHT22;33280;52.152;21.052;2022-10-28T10:08:45;20.00;99.90
47540;DHT22;33280;52.152;21.052;2022-10-28T10:14:08;20.30;99.90
47540;DHT22;33280;52.152;21.052;2022-10-28T10:16:51;20.50;99.90
47540;DHT22;33280;52.152;21.052;2022-10-28T10:19:19;20.90;99.90
47540;DHT22;33280;52.152;21.052;2022-10-28T10:21:50;21.60;99.90
47540;DHT22;33280;52.152;21.052;2022-10-28T10:24:24;21.80;99.90
47540;DHT22;33280;52.152;21.052;2022-10-28T10:26:58;21.90;99.90
47540;DHT22;33280;52.152;21.052;2022-10-28T10:29:26;22.00;99.90
47540;DHT22;33280;52.152;21.052;2022-10-28T10:32:28;22.00;99.90
47540;DHT22;33280;52.152;21.052;2022-10-28T10:35:18;21.90;99.90
47540;DHT22;33280;52.152;21.052;2022-10-28T10:37:50;21.80;99.90
47540;DHT22;33280;52.152;21.052;2022-10-28T10:40:48;22.00;99.90
47540;DHT22;33280;52.152;21.052;2022-10-28T10:46:12;22.30;99.90
47540;DHT22;33280;52.152;21.052;2022-10-28T10:48:40;22.60;99.90
47540;DHT22;33280;52.152;21.052;2022-10-28T10:51:16;22.90;99.90
47540;DHT22;33280;52.152;21.052;2022-10-28T10:53:56;23.40;99.90
47540;DHT22;33280;52.152;21.052;2022-10-28T10:59:29;24.00;99.90
47540;DHT22;33280;52.152;21.052;2022-10-28T11:02:03;24.40;99.90
47540;DHT22;33280;52.152;21.052;2022-10-28T11:04:50;24.50;99.90
47540;DHT22;33280;52.152;21.052;2022-10-28T11:07:18;24.50;99.90
47540;DHT22;33280;52.152;21.052;2022-10-28T11:09:49;24.60;99.90
47540;DHT22;33280;52.152;21.052;2022-10-28T11:12:34;24.90;99.90
47540;DHT22;33280;52.152;21.052;2022-10-28T11:15:23;25.20;99.90
47540;DHT22;33280;52.152;21.052;2022-10-28T11:20:45;25.40;99.90
47540;DHT22;33280;52.152;21.052;2022-10-28T11:23:18;25.60;99.90
47540;DHT22;33280;52.152;21.052;2022-10-28T11:25:53;25.50;99.90
47540;DHT22;33280;52.152;21.052;2022-10-28T11:28:50;25.70;99.90
47540;DHT22;33280;52.152;21.052;2022-10-28T11:39:26;26.50;99.90
47540;DHT22;33280;52.152;21.052;2022-10-28T11:45:30;27.20;99.90
47540;DHT22;33280;52.152;21.052;2022-10-28T11:51:02;28.20;99.90
47540;DHT22;33280;52.152;21.052;2022-10-28T11:53:59;27.70;99.90
47540;DHT22;33280;52.152;21.052;2022-10-28T11:56:56;27.40;99.90
47540;DHT22;33280;52.152;21.052;2022-10-28T12:05:24;27.40;99.90
47540;DHT22;33280;52.152;21.052;2022-10-28T12:17:09;28.70;99.90
47540;DHT22;33280;52.152;21.052;2022-10-28T12:22:13;27.70;99.90
47540;DHT22;33280;52.152;21.052;2022-10-28T12:24:48;27.80;99.90
47540;DHT22;33280;52.152;21.052;2022-10-28T12:27:46;28.00;99.90
47540;DHT22;33280;52.152;21.052;2022-10-28T12:30:20;27.70;99.90
47540;DHT22;33280;52.152;21.052;2022-10-28T12:32:57;28.00;99.90
47540;DHT22;33280;52.152;21.052;2022-10-28T12:35:33;28.10;99.50
47540;DHT22;33280;52.152;21.052;2022-10-28T12:38:19;27.80;99.60
47540;DHT22;33280;52.152;21.052;2022-10-28T12:40:54;27.30;99.90
47540;DHT22;33280;52.152;21.052;2022-10-28T12:43:55;27.30;99.90
47540;DHT22;33280;52.152;21.052;2022-10-28T12:49:43;27.10;99.90
47540;DHT22;33280;52.152;21.052;2022-10-28T12:57:38;26.60;99.90
47540;DHT22;33280;52.152;21.052;2022-10-28T13:00:20;26.20;99.90
47540;DHT22;33280;52.152;21.052;2022-10-28T13:03:00;26.20;99.90
47540;DHT22;33280;52.152;21.052;2022-10-28T13:11:25;24.90;99.90
47540;DHT22;33280;52.152;21.052;2022-10-28T13:27:29;24.00;99.90
47540;DHT22;33280;52.152;21.052;2022-10-28T13:29:58;23.80;99.90
47540;DHT22;33280;52.152;21.052;2022-10-28T13:32:35;23.60;99.90
47540;DHT22;33280;52.152;21.052;2022-10-28T13:35:23;23.40;99.90
47540;DHT22;33280;52.152;21.052;2022-10-28T13:37:51;22.80;99.90
47540;DHT22;33280;52.152;21.052;2022-10-28T13:42:57;22.20;99.90
47540;DHT22;33280;52.152;21.052;2022-10-28T13:48:52;21.80;99.90
47540;DHT22;33280;52.152;21.052;2022-10-28T13:58:57;20.60;99.90
47540;DHT22;33280;52.152;21.052;2022-10-28T14:04:33;20.10;99.90
47540;DHT22;33280;52.152;21.052;2022-10-28T14:07:17;19.90;99.90
47540;DHT22;33280;52.152;21.052;2022-10-28T14:09:51;19.70;99.90
47540;DHT22;33280;52.152;21.052;2022-10-28T14:12:28;19.60;99.90
47540;DHT22;33280;52.152;21.052;2022-10-28T14:15:04;19.40;99.90
47540;DHT22;33280;52.152;21.052;2022-10-28T14:17:36;19.40;99.90
47540;DHT22;33280;52.152;21.052;2022-10-28T14:20:17;19.40;99.90
47540;DHT22;33280;52.152;21.052;2022-10-28T14:22:45;19.40;99.90
47540;DHT22;33280;52.152;21.052;2022-10-28T14:49:39;18.70;99.90
47540;DHT22;33280;52.152;21.052;2022-10-28T14:52:14;18.60;99.90
47540;DHT22;33280;52.152;21.052;2022-10-28T14:54:52;18.60;99.90
47540;DHT22;33280;52.152;21.052;2022-10-28T14:57:27;18.40;99.90
47540;DHT22;33280;52.152;21.052;2022-10-28T15:00:07;18.40;99.90
47540;DHT22;33280;52.152;21.052;2022-10-28T15:02:36;18.40;99.90
47540;DHT22;33280;52.152;21.052;2022-10-28T15:07:43;18.30;99.90
47540;DHT22;33280;52.152;21.052;2022-10-28T15:10:14;18.20;99.90
47540;DHT22;33280;52.152;21.052;2022-10-28T15:12:46;18.10;99.90
47540;DHT22;33280;52.152;21.052;2022-10-28T15:15:29;18.00;99.90
47540;DHT22;33280;52.152;21.052;2022-10-28T15:17:59;18.00;99.90
47540;DHT22;33280;52.152;21.052;2022-10-28T15:20:30;17.90;99.90
47540;DHT22;33280;52.152;21.052;2022-10-28T15:23:17;17.80;99.90
47540;DHT22;33280;52.152;21.052;2022-10-28T15:25:45;17.70;99.90
47540;DHT22;33280;52.152;21.052;2022-10-28T15:28:12;17.70;99.90
47540;DHT22;33280;52.152;21.052;2022-10-28T15:30:41;17.60;99.90
47540;DHT22;33280;52.152;21.052;2022-10-28T15:33:38;17.60;99.90
47540;DHT22;33280;52.152;21.052;2022-10-28T15:36:14;17.60;99.90
47540;DHT22;33280;52.152;21.052;2022-10-28T15:39:00;17.50;99.90
47540;DHT22;33280;52.152;21.052;2022-10-28T15:41:46;17.40;99.90
47540;DHT22;33280;52.152;21.052;2022-10-28T15:44:29;17.40;99.90
47540;DHT22;33280;52.152;21.052;2022-10-28T15:46:58;17.30;99.90
47540;DHT22;33280;52.152;21.052;2022-10-28T15:49:35;17.20;99.90
47540;DHT22;33280;52.152;21.052;2022-10-28T15:52:21;17.20;99.90
47540;DHT22;33280;52.152;21.052;2022-10-28T15:55:00;17.10;99.90
47540;DHT22;33280;52.152;21.052;2022-10-28T15:57:29;17.10;99.90
47540;DHT22;33280;52.152;21.052;2022-10-28T16:00:27;16.90;99.90
47540;DHT22;33280;52.152;21.052;2022-10-28T16:02:58;16.90;99.90
47540;DHT22;33280;52.152;21.052;2022-10-28T16:08:23;16.90;99.90
47540;DHT22;33280;52.152;21.052;2022-10-28T16:11:36;16.80;99.90
47540;DHT22;33280;52.152;21.052;2022-10-28T16:20:26;16.80;99.90
47540;DHT22;33280;52.152;21.052;2022-10-28T16:25:54;16.80;99.90
47540;DHT22;33280;52.152;21.052;2022-10-28T16:28:24;16.70;99.90
47540;DHT22;33280;52.152;21.052;2022-10-28T16:37:31;16.70;99.90
47540;DHT22;33280;52.152;21.052;2022-10-28T16:39:59;16.70;99.90
47540;DHT22;33280;52.152;21.052;2022-10-28T16:42:27;16.70;99.90
47540;DHT22;33280;52.152;21.052;2022-10-28T16:44:54;16.70;99.90
47540;DHT22;33280;52.152;21.052;2022-10-28T16:47:22;16.70;99.90
47540;DHT22;33280;52.152;21.052;2022-10-28T16:49:52;16.70;99.90
47540;DHT22;33280;52.152;21.052;2022-10-28T16:52:25;16.70;99.90
47540;DHT22;33280;52.152;21.052;2022-10-28T16:54:53;16.70;99.90
47540;DHT22;33280;52.152;21.052;2022-10-28T16:57:20;16.70;99.90
47540;DHT22;33280;52.152;21.052;2022-10-28T16:59:53;16.70;99.90
47540;DHT22;33280;52.152;21.052;2022-10-28T17:04:47;16.70;99.90
47540;DHT22;33280;52.152;21.052;2022-10-28T17:07:13;16.70;99.90
47540;DHT22;33280;52.152;21.052;2022-10-28T17:09:42;16.70;99.90
47540;DHT22;33280;52.152;21.052;2022-10-28T17:12:13;16.70;99.90
47540;DHT22;33280;52.152;21.052;2022-10-28T17:14:40;16.70;99.90
47540;DHT22;33280;52.152;21.052;2022-10-28T17:17:08;16.70;99.90
47540;DHT22;33280;52.152;21.052;2022-10-28T17:19:39;16.80;99.90
47540;DHT22;33280;52.152;21.052;2022-10-28T17:22:07;16.80;99.90
47540;DHT22;33280;52.152;21.052;2022-10-28T17:24:36;16.80;99.90
47540;DHT22;33280;52.152;21.052;2022-10-28T17:27:04;16.80;99.90
47540;DHT22;33280;52.152;21.052;2022-10-28T17:29:32;16.70;99.90
47540;DHT22;33280;52.152;21.052;2022-10-28T17:31:59;16.60;99.90
47540;DHT22;33280;52.152;21.052;2022-10-28T17:34:29;16.60;99.90
47540;DHT22;33280;52.152;21.052;2022-10-28T17:36:56;16.60;99.90
47540;DHT22;33280;52.152;21.052;2022-10-28T17:39:23;16.60;99.90
47540;DHT22;33280;52.152;21.052;2022-10-28T17:41:52;16.60;99.90
47540;DHT22;33280;52.152;21.052;2022-10-28T17:44:20;16.60;99.90
47540;DHT22;33280;52.152;21.052;2022-10-28T17:46:48;16.60;99.90
47540;DHT22;33280;52.152;21.052;2022-10-28T17:49:16;16.60;99.90
47540;DHT22;33280;52.152;21.052;2022-10-28T17:51:43;16.60;99.90
47540;DHT22;33280;52.152;21.052;2022-10-28T17:54:10;16.60;99.90
47540;DHT22;33280;52.152;21.052;2022-10-28T17:56:37;16.50;99.90
47540;DHT22;33280;52.152;21.052;2022-10-28T17:59:05;16.50;99.90
47540;DHT22;33280;52.152;21.052;2022-10-28T18:01:33;16.50;99.90
47540;DHT22;33280;52.152;21.052;2022-10-28T18:04:00;16.40;99.90
47540;DHT22;33280;52.152;21.052;2022-10-28T18:06:29;16.40;99.90
47540;DHT22;33280;52.152;21.052;2022-10-28T18:08:56;16.40;99.90
47540;DHT22;33280;52.152;21.052;2022-10-28T18:11:24;16.40;99.90
47540;DHT22;33280;52.152;21.052;2022-10-28T18:13:52;16.30;99.90
47540;DHT22;33280;52.152;21.052;2022-10-28T18:16:23;16.30;99.90
47540;DHT22;33280;52.152;21.052;2022-10-28T18:18:54;16.30;99.90
47540;DHT22;33280;52.152;21.052;2022-10-28T18:21:22;16.20;99.90
47540;DHT22;33280;52.152;21.052;2022-10-28T18:23:53;16.20;99.90
47540;DHT22;33280;52.152;21.052;2022-10-28T18:26:23;16.20;99.90
47540;DHT22;33280;52.152;21.052;2022-10-28T18:28:49;16.20;99.90
47540;DHT22;33280;52.152;21.052;2022-10-28T18:31:18;16.20;99.90
47540;DHT22;33280;52.152;21.052;2022-10-28T18:33:45;16.20;99.90
47540;DHT22;33280;52.152;21.052;2022-10-28T18:36:15;16.20;99.90
47540;DHT22;33280;52.152;21.052;2022-10-28T18:38:42;16.20;99.90
47540;DHT22;33280;52.152;21.052;2022-10-28T18:41:15;16.20;99.90
47540;DHT22;33280;52.152;21.052;2022-10-28T18:43:42;16.20;99.90
47540;DHT22;33280;52.152;21.052;2022-10-28T18:46:09;16.20;99.90
47540;DHT22;33280;52.152;21.052;2022-10-28T18:48:36;16.10;99.90
47540;DHT22;33280;52.152;21.052;2022-10-28T18:51:06;16.10;99.90
47540;DHT22;33280;52.152;21.052;2022-10-28T18:53:43;16.10;99.90
47540;DHT22;33280;52.152;21.052;2022-10-28T18:56:16;16.00;99.90
47540;DHT22;33280;52.152;21.052;2022-10-28T18:58:44;16.00;99.90
47540;DHT22;33280;52.152;21.052;2022-10-28T19:01:13;16.00;99.90
47540;DHT22;33280;52.152;21.052;2022-10-28T19:03:41;16.00;99.90
47540;DHT22;33280;52.152;21.052;2022-10-28T19:06:13;16.10;99.90
47540;DHT22;33280;52.152;21.052;2022-10-28T19:08:42;16.10;99.90
47540;DHT22;33280;52.152;21.052;2022-10-28T19:11:10;16.00;99.90
47540;DHT22;33280;52.152;21.052;2022-10-28T19:13:40;16.00;99.90